sensor_id;sensor_type;location;lat;lon;timestamp;temperature;humidity
44305;DHT22;30019;50.576;8.568;2022-09-21T00:00:40;6.80;99.90
44305;DHT22;30019;50.576;8.568;2022-09-21T00:03:08;6.70;99.90
44305;DHT22;30019;50.576;8.568;2022-09-21T00:05:34;6.80;99.90
44305;DHT22;30019;50.576;8.568;2022-09-21T00:08:05;6.70;99.90
44305;DHT22;30019;50.576;8.568;2022-09-21T00:10:31;6.70;99.90
44305;DHT22;30019;50.576;8.568;2022-09-21T00:12:57;6.70;99.90
44305;DHT22;30019;50.576;8.568;2022-09-21T00:15:24;6.70;99.90
44305;DHT22;30019;50.576;8.568;2022-09-21T00:17:52;6.60;99.90
44305;DHT22;30019;50.576;8.568;2022-09-21T00:20:18;6.60;99.90
44305;DHT22;30019;50.576;8.568;2022-09-21T00:22:45;6.60;99.90
44305;DHT22;30019;50.576;8.568;2022-09-21T00:25:10;6.60;99.90
44305;DHT22;30019;50.576;8.568;2022-09-21T00:27:36;6.60;99.90
44305;DHT22;30019;50.576;8.568;2022-09-21T00:30:05;6.60;99.90
44305;DHT22;30019;50.576;8.568;2022-09-21T00:32:32;6.60;99.90
44305;DHT22;30019;50.576;8.568;2022-09-21T00:34:58;6.60;99.90
44305;DHT22;30019;50.576;8.568;2022-09-21T00:37:24;6.60;99.90
44305;DHT22;30019;50.576;8.568;2022-09-21T00:39:50;6.60;99.90
44305;DHT22;30019;50.576;8.568;2022-09-21T00:42:31;6.60;99.90
44305;DHT22;30019;50.576;8.568;2022-09-21T00:44:57;6.60;99.90
44305;DHT22;30019;50.576;8.568;2022-09-21T00:47:30;6.60;99.90
44305;DHT22;30019;50.576;8.568;2022-09-21T00:49:58;6.60;99.90
44305;DHT22;30019;50.576;8.568;2022-09-21T00:52:26;6.70;99.90
44305;DHT22;30019;50.576;8.568;2022-09-21T00:55:04;6.80;99.90
44305;DHT22;30019;50.576;8.568;2022-09-21T00:57:31;6.70;99.90
44305;DHT22;30019;50.576;8.568;2022-09-21T01:00:00;6.60;99.90
44305;DHT22;30019;50.576;8.568;2022-09-21T01:02:27;6.60;99.90
44305;DHT22;30019;50.576;8.568;2022-09-21T01:04:53;6.50;99.90
44305;DHT22;30019;50.576;8.568;2022-09-21T01:07:21;6.50;99.90
44305;DHT22;30019;50.576;8.568;2022-09-21T01:09:52;6.50;99.90
44305;DHT22;30019;50.576;8.568;2022-09-21T01:12:44;6.50;99.90
44305;DHT22;30019;50.576;8.568;2022-09-21T01:18:30;6.50;99.90
44305;DHT22;30019;50.576;8.568;2022-09-21T01:32:07;6.50;99.90
44305;DHT22;30019;50.576;8.568;2022-09-21T01:37:56;6.60;99.90
44305;DHT22;30019;50.576;8.568;2022-09-21T01:40:30;6.60;99.90
44305;DHT22;30019;50.576;8.568;2022-09-21T01:42:58;6.60;99.90
44305;DHT22;30019;50.576;8.568;2022-09-21T01:45:32;6.60;99.90
44305;DHT22;30019;50.576;8.568;2022-09-21T01:48:00;6.60;99.90
44305;DHT22;30019;50.576;8.568;2022-09-21T01:50:37;6.60;99.90
44305;DHT22;30019;50.576;8.568;2022-09-21T01:53:17;6.50;99.90
44305;DHT22;30019;50.576;8.568;2022-09-21T01:55:50;6.50;99.90
44305;DHT22;30019;50.576;8.568;2022-09-21T01:58:34;6.40;99.90
44305;DHT22;30019;50.576;8.568;2022-09-21T02:01:02;6.40;99.90
44305;DHT22;30019;50.576;8.568;2022-09-21T02:03:32;6.40;99.90
44305;DHT22;30019;50.576;8.568;2022-09-21T02:06:02;6.30;99.90
44305;DHT22;30019;50.576;8.568;2022-09-21T02:08:30;6.30;99.90
44305;DHT22;30019;50.576;8.568;2022-09-21T02:10:58;6.20;99.90
44305;DHT22;30019;50.576;8.568;2022-09-21T02:13:24;6.20;99.90
44305;DHT22;30019;50.576;8.568;2022-09-21T02:27:00;6.20;99.90
44305;DHT22;30019;50.576;8.568;2022-09-21T02:35:35;6.20;99.90
44305;DHT22;30019;50.576;8.568;2022-09-21T02:38:10;6.10;99.90
44305;DHT22;30019;50.576;8.568;2022-09-21T02:40:39;6.10;99.90
44305;DHT22;30019;50.576;8.568;2022-09-21T02:43:11;6.10;99.90
44305;DHT22;30019;50.576;8.568;2022-09-21T02:45:44;6.10;99.90
44305;DHT22;30019;50.576;8.568;2022-09-21T02:48:27;6.10;99.90
44305;DHT22;30019;50.576;8.568;2022-09-21T02:50:58;6.10;99.90
44305;DHT22;30019;50.576;8.568;2022-09-21T02:53:29;6.00;99.90
44305;DHT22;30019;50.576;8.568;2022-09-21T02:55:59;6.00;99.90
44305;DHT22;30019;50.576;8.568;2022-09-21T02:59:05;5.90;99.90
44305;DHT22;30019;50.576;8.568;2022-09-21T03:01:24;5.90;99.90
44305;DHT22;30019;50.576;8.568;2022-09-21T03:03:51;5.80;99.90
44305;DHT22;30019;50.576;8.568;2022-09-21T03:06:16;5.90;99.90
44305;DHT22;30019;50.576;8.568;2022-09-21T03:08:42;5.80;99.90
44305;DHT22;30019;50.576;8.568;2022-09-21T03:11:08;5.80;99.90
44305;DHT22;30019;50.576;8.568;2022-09-21T03:13:35;5.90;99.90
44305;DHT22;30019;50.576;8.568;2022-09-21T03:16:03;5.90;99.90
44305;DHT22;30019;50.576;8.568;2022-09-21T03:18:29;5.90;99.90
44305;DHT22;30019;50.576;8.568;2022-09-21T03:20:55;5.90;99.90
44305;DHT22;30019;50.576;8.568;2022-09-21T03:23:21;5.70;99.90
44305;DHT22;30019;50.576;8.568;2022-09-21T03:25:46;5.70;99.90
44305;DHT22;30019;50.576;8.568;2022-09-21T03:28:13;5.80;99.90
44305;DHT22;30019;50.576;8.568;2022-09-21T03:30:40;5.80;99.90
44305;DHT22;30019;50.576;8.568;2022-09-21T03:33:06;5.70;99.90
44305;DHT22;30019;50.576;8.568;2022-09-21T03:35:32;5.70;99.90
44305;DHT22;30019;50.576;8.568;2022-09-21T03:37:59;5.70;99.90
44305;DHT22;30019;50.576;8.568;2022-09-21T03:40:24;5.70;99.90
44305;DHT22;30019;50.576;8.568;2022-09-21T03:42:51;5.70;99.90
44305;DHT22;30019;50.576;8.568;2022-09-21T03:45:17;5.70;99.90
44305;DHT22;30019;50.576;8.568;2022-09-21T03:47:43;5.70;99.90
44305;DHT22;30019;50.576;8.568;2022-09-21T03:50:08;5.80;99.90
44305;DHT22;30019;50.576;8.568;2022-09-21T03:52:34;5.70;99.90
44305;DHT22;30019;50.576;8.568;2022-09-21T03:55:05;5.70;99.90
44305;DHT22;30019;50.576;8.568;2022-09-21T03:57:32;5.60;99.90
44305;DHT22;30019;50.576;8.568;2022-09-21T03:59:58;5.70;99.90
44305;DHT22;30019;50.576;8.568;2022-09-21T04:02:24;5.70;99.90
44305;DHT22;30019;50.576;8.568;2022-09-21T04:04:50;5.70;99.90
44305;DHT22;30019;50.576;8.568;2022-09-21T04:07:15;5.70;99.90
44305;DHT22;30019;50.576;8.568;2022-09-21T04:09:41;5.70;99.90
44305;DHT22;30019;50.576;8.568;2022-09-21T04:12:06;5.70;99.90
44305;DHT22;30019;50.576;8.568;2022-09-21T04:14:32;5.60;99.90
44305;DHT22;30019;50.576;8.568;2022-09-21T04:16:58;5.60;99.90
44305;DHT22;30019;50.576;8.568;2022-09-21T04:19:24;5.60;99.90
44305;DHT22;30019;50.576;8.568;2022-09-21T04:21:50;5.60;99.90
44305;DHT22;30019;50.576;8.568;2022-09-21T04:24:20;5.50;99.90
44305;DHT22;30019;50.576;8.568;2022-09-21T04:26:46;5.50;99.90
44305;DHT22;30019;50.576;8.568;2022-09-21T04:29:15;5.60;99.90
44305;DHT22;30019;50.576;8.568;2022-09-21T04:31:41;5.60;99.90
44305;DHT22;30019;50.576;8.568;2022-09-21T04:34:08;5.70;99.90
44305;DHT22;30019;50.576;8.568;2022-09-21T04:36:36;5.60;99.90
44305;DHT22;30019;50.576;8.568;2022-09-21T04:39:02;5.50;99.90
44305;DHT22;30019;50.576;8.568;2022-09-21T04:41:27;5.50;99.90
44305;DHT22;30019;50.576;8.568;2022-09-21T04:43:53;5.50;99.90
44305;DHT22;30019;50.576;8.568;2022-09-21T04:46:19;5.40;99.90
44305;DHT22;30019;50.576;8.568;2022-09-21T04:48:46;5.50;99.90
44305;DHT22;30019;50.576;8.568;2022-09-21T04:51:12;5.40;99.90
44305;DHT22;30019;50.576;8.568;2022-09-21T04:53:39;5.40;99.90
44305;DHT22;30019;50.576;8.568;2022-09-21T04:56:07;5.40;99.90
44305;DHT22;30019;50.576;8.568;2022-09-21T04:58:33;5.40;99.90
44305;DHT22;30019;50.576;8.568;2022-09-21T05:01:00;5.30;99.90
44305;DHT22;30019;50.576;8.568;2022-09-21T05:03:26;5.40;99.90
44305;DHT22;30019;50.576;8.568;2022-09-21T05:05:54;5.40;99.90
44305;DHT22;30019;50.576;8.568;2022-09-21T05:08:21;5.40;99.90
44305;DHT22;30019;50.576;8.568;2022-09-21T05:11:08;5.40;99.90
44305;DHT22;30019;50.576;8.568;2022-09-21T05:13:34;5.30;99.90
44305;DHT22;30019;50.576;8.568;2022-09-21T05:16:00;5.30;99.90
44305;DHT22;30019;50.576;8.568;2022-09-21T05:18:26;5.30;99.90
44305;DHT22;30019;50.576;8.568;2022-09-21T05:20:56;5.20;99.90
44305;DHT22;30019;50.576;8.568;2022-09-21T05:23:22;5.20;99.90
44305;DHT22;30019;50.576;8.568;2022-09-21T05:25:48;5.30;99.90
44305;DHT22;30019;50.576;8.568;2022-09-21T05:28:18;5.30;99.90
44305;DHT22;30019;50.576;8.568;2022-09-21T05:30:45;5.30;99.90
44305;DHT22;30019;50.576;8.568;2022-09-21T05:33:15;5.20;99.90
44305;DHT22;30019;50.576;8.568;2022-09-21T05:35:51;5.20;99.90
44305;DHT22;30019;50.576;8.568;2022-09-21T05:38:20;5.20;99.90
44305;DHT22;30019;50.576;8.568;2022-09-21T05:40:46;5.20;99.90
44305;DHT22;30019;50.576;8.568;2022-09-21T05:43:14;5.30;99.90
44305;DHT22;30019;50.576;8.568;2022-09-21T05:45:43;5.20;99.90
44305;DHT22;30019;50.576;8.568;2022-09-21T05:48:35;5.20;99.90
44305;DHT22;30019;50.576;8.568;2022-09-21T05:51:19;5.20;99.90
44305;DHT22;30019;50.576;8.568;2022-09-21T05:53:58;5.30;99.90
44305;DHT22;30019;50.576;8.568;2022-09-21T05:56:33;5.30;99.90
44305;DHT22;30019;50.576;8.568;2022-09-21T05:59:13;5.20;99.90
44305;DHT22;30019;50.576;8.568;2022-09-21T06:04:26;5.20;99.90
44305;DHT22;30019;50.576;8.568;2022-09-21T06:06:51;5.20;99.90
44305;DHT22;30019;50.576;8.568;2022-09-21T06:09:17;5.30;99.90
44305;DHT22;30019;50.576;8.568;2022-09-21T06:11:45;5.30;99.90
44305;DHT22;30019;50.576;8.568;2022-09-21T06:14:10;5.40;99.90
44305;DHT22;30019;50.576;8.568;2022-09-21T06:16:40;5.40;99.90
44305;DHT22;30019;50.576;8.568;2022-09-21T06:19:09;5.40;99.90
44305;DHT22;30019;50.576;8.568;2022-09-21T06:21:35;5.50;99.90
44305;DHT22;30019;50.576;8.568;2022-09-21T06:24:00;5.50;99.90
44305;DHT22;30019;50.576;8.568;2022-09-21T06:26:26;5.50;99.90
44305;DHT22;30019;50.576;8.568;2022-09-21T06:28:53;5.50;99.90
44305;DHT22;30019;50.576;8.568;2022-09-21T06:31:18;5.40;99.90
44305;DHT22;30019;50.576;8.568;2022-09-21T06:33:44;5.40;99.90
44305;DHT22;30019;50.576;8.568;2022-09-21T06:36:09;5.50;99.90
44305;DHT22;30019;50.576;8.568;2022-09-21T06:38:35;5.50;99.90
44305;DHT22;30019;50.576;8.568;2022-09-21T06:41:02;5.60;99.90
44305;DHT22;30019;50.576;8.568;2022-09-21T06:43:28;5.70;99.90
44305;DHT22;30019;50.576;8.568;2022-09-21T06:45:56;5.70;99.90
44305;DHT22;30019;50.576;8.568;2022-09-21T06:48:22;5.70;99.90
44305;DHT22;30019;50.576;8.568;2022-09-21T06:50:48;5.70;99.90
44305;DHT22;30019;50.576;8.568;2022-09-21T06:53:14;5.70;99.90
44305;DHT22;30019;50.576;8.568;2022-09-21T06:55:40;5.60;99.90
44305;DHT22;30019;50.576;8.568;2022-09-21T06:58:05;5.70;99.90
44305;DHT22;30019;50.576;8.568;2022-09-21T07:00:32;5.70;99.90
44305;DHT22;30019;50.576;8.568;2022-09-21T07:02:58;5.80;99.90
44305;DHT22;30019;50.576;8.568;2022-09-21T07:05:23;5.90;99.90
44305;DHT22;30019;50.576;8.568;2022-09-21T07:07:49;5.90;99.90
44305;DHT22;30019;50.576;8.568;2022-09-21T07:10:14;6.00;99.90
44305;DHT22;30019;50.576;8.568;2022-09-21T07:12:40;6.20;99.90
44305;DHT22;30019;50.576;8.568;2022-09-21T07:15:06;6.20;99.90
44305;DHT22;30019;50.576;8.568;2022-09-21T07:17:33;6.30;99.90
44305;DHT22;30019;50.576;8.568;2022-09-21T07:20:00;6.40;99.90
44305;DHT22;30019;50.576;8.568;2022-09-21T07:22:29;6.50;99.90
44305;DHT22;30019;50.576;8.568;2022-09-21T07:24:55;6.60;99.90
44305;DHT22;30019;50.576;8.568;2022-09-21T07:27:21;6.60;99.90
44305;DHT22;30019;50.576;8.568;2022-09-21T07:29:46;6.60;99.90
44305;DHT22;30019;50.576;8.568;2022-09-21T07:32:12;6.50;99.90
44305;DHT22;30019;50.576;8.568;2022-09-21T07:34:38;6.60;99.90
44305;DHT22;30019;50.576;8.568;2022-09-21T07:37:04;6.80;99.90
44305;DHT22;30019;50.576;8.568;2022-09-21T07:39:29;6.60;99.90
44305;DHT22;30019;50.576;8.568;2022-09-21T07:41:55;6.70;99.90
44305;DHT22;30019;50.576;8.568;2022-09-21T07:44:22;7.00;99.90
44305;DHT22;30019;50.576;8.568;2022-09-21T07:46:48;7.00;99.90
44305;DHT22;30019;50.576;8.568;2022-09-21T07:49:14;7.10;99.90
44305;DHT22;30019;50.576;8.568;2022-09-21T07:51:39;7.30;99.90
44305;DHT22;30019;50.576;8.568;2022-09-21T07:54:05;7.40;99.90
44305;DHT22;30019;50.576;8.568;2022-09-21T07:56:31;7.30;99.90
44305;DHT22;30019;50.576;8.568;2022-09-21T07:58:56;7.50;99.90
44305;DHT22;30019;50.576;8.568;2022-09-21T08:01:32;7.70;99.90
44305;DHT22;30019;50.576;8.568;2022-09-21T08:03:59;7.80;99.90
44305;DHT22;30019;50.576;8.568;2022-09-21T08:06:27;8.00;99.90
44305;DHT22;30019;50.576;8.568;2022-09-21T08:08:54;8.10;99.90
44305;DHT22;30019;50.576;8.568;2022-09-21T08:11:21;8.00;99.90
44305;DHT22;30019;50.576;8.568;2022-09-21T08:13:47;7.90;99.90
44305;DHT22;30019;50.576;8.568;2022-09-21T08:16:13;7.90;99.90
44305;DHT22;30019;50.576;8.568;2022-09-21T08:18:40;7.80;99.90
44305;DHT22;30019;50.576;8.568;2022-09-21T08:21:06;8.00;99.90
44305;DHT22;30019;50.576;8.568;2022-09-21T08:23:34;8.20;99.90
44305;DHT22;30019;50.576;8.568;2022-09-21T08:26:01;8.20;99.90
44305;DHT22;30019;50.576;8.568;2022-09-21T08:28:28;8.60;99.90
44305;DHT22;30019;50.576;8.568;2022-09-21T08:31:05;8.90;99.90
44305;DHT22;30019;50.576;8.568;2022-09-21T08:33:32;9.20;99.90
44305;DHT22;30019;50.576;8.568;2022-09-21T08:35:59;9.30;99.90
44305;DHT22;30019;50.576;8.568;2022-09-21T08:38:26;9.40;99.90
44305;DHT22;30019;50.576;8.568;2022-09-21T08:40:52;9.50;99.90
44305;DHT22;30019;50.576;8.568;2022-09-21T08:43:29;9.50;99.90
44305;DHT22;30019;50.576;8.568;2022-09-21T08:45:58;9.50;99.90
44305;DHT22;30019;50.576;8.568;2022-09-21T08:48:29;9.40;99.90
44305;DHT22;30019;50.576;8.568;2022-09-21T08:50:59;9.30;99.90
44305;DHT22;30019;50.576;8.568;2022-09-21T08:53:39;9.30;99.90
44305;DHT22;30019;50.576;8.568;2022-09-21T08:56:11;9.60;99.90
44305;DHT22;30019;50.576;8.568;2022-09-21T08:58:37;11.60;99.90
44305;DHT22;30019;50.576;8.568;2022-09-21T09:12:47;15.70;99.90
44305;DHT22;30019;50.576;8.568;2022-09-21T09:15:41;16.50;99.90
44305;DHT22;30019;50.576;8.568;2022-09-21T09:20:59;16.60;99.90
44305;DHT22;30019;50.576;8.568;2022-09-21T09:23:30;16.00;99.90
44305;DHT22;30019;50.576;8.568;2022-09-21T09:26:03;15.30;99.90
44305;DHT22;30019;50.576;8.568;2022-09-21T09:28:47;15.30;99.90
44305;DHT22;30019;50.576;8.568;2022-09-21T09:31:22;15.30;99.90
44305;DHT22;30019;50.576;8.568;2022-09-21T09:36:28;14.40;99.90
44305;DHT22;30019;50.576;8.568;2022-09-21T09:39:00;14.50;99.90
44305;DHT22;30019;50.576;8.568;2022-09-21T09:41:45;14.80;99.90
44305;DHT22;30019;50.576;8.568;2022-09-21T09:44:47;14.90;99.90
44305;DHT22;30019;50.576;8.568;2022-09-21T09:50:32;15.70;99.90
44305;DHT22;30019;50.576;8.568;2022-09-21T09:53:12;15.80;99.90
44305;DHT22;30019;50.576;8.568;2022-09-21T09:55:41;16.20;99.90
44305;DHT22;30019;50.576;8.568;2022-09-21T09:58:45;16.50;99.90
44305;DHT22;30019;50.576;8.568;2022-09-21T10:04:08;16.70;99.90
44305;DHT22;30019;50.576;8.568;2022-09-21T10:06:34;17.10;99.90
44305;DHT22;30019;50.576;8.568;2022-09-21T10:08:59;17.90;99.90
44305;DHT22;30019;50.576;8.568;2022-09-21T10:11:35;18.50;99.90
44305;DHT22;30019;50.576;8.568;2022-09-21T10:14:08;19.20;99.90
44305;DHT22;30019;50.576;8.568;2022-09-21T10:16:40;18.50;99.90
44305;DHT22;30019;50.576;8.568;2022-09-21T10:19:46;17.90;99.90
44305;DHT22;30019;50.576;8.568;2022-09-21T10:22:04;19.10;99.90
44305;DHT22;30019;50.576;8.568;2022-09-21T10:24:30;20.90;98.70
44305;DHT22;30019;50.576;8.568;2022-09-21T10:29:46;22.00;94.20
44305;DHT22;30019;50.576;8.568;2022-09-21T10:34:39;23.50;91.80
44305;DHT22;30019;50.576;8.568;2022-09-21T10:37:29;23.70;89.80
44305;DHT22;30019;50.576;8.568;2022-09-21T10:39:54;23.10;91.00
44305;DHT22;30019;50.576;8.568;2022-09-21T10:42:21;23.30;87.20
44305;DHT22;30019;50.576;8.568;2022-09-21T10:45:03;22.60;84.80
44305;DHT22;30019;50.576;8.568;2022-09-21T10:47:39;22.20;88.80
44305;DHT22;30019;50.576;8.568;2022-09-21T10:50:34;22.50;86.40
44305;DHT22;30019;50.576;8.568;2022-09-21T10:55:36;23.40;82.80
44305;DHT22;30019;50.576;8.568;2022-09-21T10:58:11;22.70;81.10
44305;DHT22;30019;50.576;8.568;2022-09-21T11:00:41;22.70;83.00
44305;DHT22;30019;50.576;8.568;2022-09-21T11:05:55;24.20;79.30
44305;DHT22;30019;50.576;8.568;2022-09-21T11:08:42;24.80;74.70
44305;DHT22;30019;50.576;8.568;2022-09-21T11:14:04;22.70;82.70
44305;DHT22;30019;50.576;8.568;2022-09-21T11:16:38;23.20;79.00
44305;DHT22;30019;50.576;8.568;2022-09-21T11:22:15;23.20;79.30
44305;DHT22;30019;50.576;8.568;2022-09-21T11:27:44;21.20;77.50
44305;DHT22;30019;50.576;8.568;2022-09-21T11:30:16;21.80;83.50
44305;DHT22;30019;50.576;8.568;2022-09-21T11:35:42;22.00;80.30
44305;DHT22;30019;50.576;8.568;2022-09-21T11:38:15;22.60;81.50
44305;DHT22;30019;50.576;8.568;2022-09-21T11:43:52;22.40;78.40
44305;DHT22;30019;50.576;8.568;2022-09-21T11:52:24;22.50;78.40
44305;DHT22;30019;50.576;8.568;2022-09-21T11:54:59;21.90;77.70
44305;DHT22;30019;50.576;8.568;2022-09-21T12:00:08;23.70;77.10
44305;DHT22;30019;50.576;8.568;2022-09-21T12:07:55;23.30;74.60
44305;DHT22;30019;50.576;8.568;2022-09-21T12:13:11;21.90;78.30
44305;DHT22;30019;50.576;8.568;2022-09-21T12:23:38;21.70;75.50
44305;DHT22;30019;50.576;8.568;2022-09-21T12:26:06;20.80;74.50
44305;DHT22;30019;50.576;8.568;2022-09-21T12:28:43;21.30;76.50
44305;DHT22;30019;50.576;8.568;2022-09-21T12:34:16;23.40;73.00
44305;DHT22;30019;50.576;8.568;2022-09-21T12:39:32;25.00;70.20
44305;DHT22;30019;50.576;8.568;2022-09-21T12:45:11;23.90;68.20
44305;DHT22;30019;50.576;8.568;2022-09-21T12:50:55;22.70;71.30
44305;DHT22;30019;50.576;8.568;2022-09-21T12:53:24;23.60;73.20
44305;DHT22;30019;50.576;8.568;2022-09-21T12:58:22;23.50;71.50
44305;DHT22;30019;50.576;8.568;2022-09-21T13:01:08;22.60;70.10
44305;DHT22;30019;50.576;8.568;2022-09-21T13:09:39;21.50;72.70
44305;DHT22;30019;50.576;8.568;2022-09-21T13:12:20;21.60;72.70
44305;DHT22;30019;50.576;8.568;2022-09-21T13:14:58;20.80;71.10
44305;DHT22;30019;50.576;8.568;2022-09-21T13:17:30;20.50;69.60
44305;DHT22;30019;50.576;8.568;2022-09-21T13:20:05;20.50;72.00
44305;DHT22;30019;50.576;8.568;2022-09-21T13:22:33;21.00;74.40
44305;DHT22;30019;50.576;8.568;2022-09-21T13:30:47;20.30;71.80
44305;DHT22;30019;50.576;8.568;2022-09-21T13:41:25;19.30;76.00
44305;DHT22;30019;50.576;8.568;2022-09-21T13:49:04;19.30;83.00
44305;DHT22;30019;50.576;8.568;2022-09-21T13:52:00;19.70;80.80
44305;DHT22;30019;50.576;8.568;2022-09-21T13:54:33;20.00;75.50
44305;DHT22;30019;50.576;8.568;2022-09-21T13:57:04;20.10;73.70
44305;DHT22;30019;50.576;8.568;2022-09-21T13:59:31;20.10;75.50
44305;DHT22;30019;50.576;8.568;2022-09-21T14:01:59;19.50;77.50
44305;DHT22;30019;50.576;8.568;2022-09-21T14:04:26;19.50;77.90
44305;DHT22;30019;50.576;8.568;2022-09-21T14:06:54;19.30;74.30
44305;DHT22;30019;50.576;8.568;2022-09-21T14:09:26;19.40;74.50
44305;DHT22;30019;50.576;8.568;2022-09-21T14:12:05;19.70;77.40
44305;DHT22;30019;50.576;8.568;2022-09-21T14:14:35;19.70;72.40
44305;DHT22;30019;50.576;8.568;2022-09-21T14:18:02;19.70;74.60
44305;DHT22;30019;50.576;8.568;2022-09-21T14:27:51;18.90;73.60
44305;DHT22;30019;50.576;8.568;2022-09-21T14:30:23;18.60;78.30
44305;DHT22;30019;50.576;8.568;2022-09-21T14:35:30;18.80;75.60
44305;DHT22;30019;50.576;8.568;2022-09-21T14:40:49;18.30;80.10
44305;DHT22;30019;50.576;8.568;2022-09-21T14:43:24;18.10;82.20
44305;DHT22;30019;50.576;8.568;2022-09-21T14:48:58;17.50;83.20
44305;DHT22;30019;50.576;8.568;2022-09-21T14:57:40;17.00;87.20
44305;DHT22;30019;50.576;8.568;2022-09-21T15:00:19;17.00;90.40
44305;DHT22;30019;50.576;8.568;2022-09-21T15:02:48;16.80;91.30
44305;DHT22;30019;50.576;8.568;2022-09-21T15:05:39;16.70;90.80
44305;DHT22;30019;50.576;8.568;2022-09-21T15:11:27;16.60;94.30
44305;DHT22;30019;50.576;8.568;2022-09-21T15:21:49;18.60;85.90
44305;DHT22;30019;50.576;8.568;2022-09-21T15:27:00;18.10;85.40
44305;DHT22;30019;50.576;8.568;2022-09-21T15:29:29;18.00;86.20
44305;DHT22;30019;50.576;8.568;2022-09-21T15:31:56;17.90;84.30
44305;DHT22;30019;50.576;8.568;2022-09-21T15:34:22;17.70;83.60
44305;DHT22;30019;50.576;8.568;2022-09-21T15:36:48;17.70;85.30
44305;DHT22;30019;50.576;8.568;2022-09-21T15:39:30;17.80;84.70
44305;DHT22;30019;50.576;8.568;2022-09-21T15:44:34;17.80;81.40
44305;DHT22;30019;50.576;8.568;2022-09-21T15:47:05;17.70;84.90
44305;DHT22;30019;50.576;8.568;2022-09-21T15:49:33;17.40;82.30
44305;DHT22;30019;50.576;8.568;2022-09-21T15:52:17;17.40;84.90
44305;DHT22;30019;50.576;8.568;2022-09-21T15:54:54;17.10;82.20
44305;DHT22;30019;50.576;8.568;2022-09-21T15:57:33;17.00;81.80
44305;DHT22;30019;50.576;8.568;2022-09-21T16:00:01;17.00;81.80
44305;DHT22;30019;50.576;8.568;2022-09-21T16:02:34;17.00;82.90
44305;DHT22;30019;50.576;8.568;2022-09-21T16:05:00;16.80;84.60
44305;DHT22;30019;50.576;8.568;2022-09-21T16:07:34;17.00;84.90
44305;DHT22;30019;50.576;8.568;2022-09-21T16:10:00;17.00;82.40
44305;DHT22;30019;50.576;8.568;2022-09-21T16:12:43;16.90;82.20
44305;DHT22;30019;50.576;8.568;2022-09-21T16:15:26;16.90;84.10
44305;DHT22;30019;50.576;8.568;2022-09-21T16:18:01;17.10;85.00
44305;DHT22;30019;50.576;8.568;2022-09-21T16:23:18;17.00;80.30
44305;DHT22;30019;50.576;8.568;2022-09-21T16:25:58;16.80;80.60
44305;DHT22;30019;50.576;8.568;2022-09-21T16:28:34;16.80;84.10
44305;DHT22;30019;50.576;8.568;2022-09-21T16:31:21;16.70;86.70
44305;DHT22;30019;50.576;8.568;2022-09-21T16:38:42;16.50;86.30
44305;DHT22;30019;50.576;8.568;2022-09-21T16:41:08;16.40;85.00
44305;DHT22;30019;50.576;8.568;2022-09-21T16:43:34;16.30;84.90
44305;DHT22;30019;50.576;8.568;2022-09-21T16:46:06;16.20;86.30
44305;DHT22;30019;50.576;8.568;2022-09-21T16:48:33;16.10;86.90
44305;DHT22;30019;50.576;8.568;2022-09-21T16:50:58;16.00;88.70
44305;DHT22;30019;50.576;8.568;2022-09-21T16:53:24;15.90;88.40
44305;DHT22;30019;50.576;8.568;2022-09-21T16:55:50;15.90;88.80
44305;DHT22;30019;50.576;8.568;2022-09-21T16:58:17;15.80;87.90
44305;DHT22;30019;50.576;8.568;2022-09-21T17:00:46;15.80;87.30
44305;DHT22;30019;50.576;8.568;2022-09-21T17:03:13;15.70;88.70
44305;DHT22;30019;50.576;8.568;2022-09-21T17:05:41;15.70;89.00
44305;DHT22;30019;50.576;8.568;2022-09-21T17:08:09;15.60;90.60
44305;DHT22;30019;50.576;8.568;2022-09-21T17:10:43;15.40;90.60
44305;DHT22;30019;50.576;8.568;2022-09-21T17:13:09;15.30;91.60
44305;DHT22;30019;50.576;8.568;2022-09-21T17:15:44;15.20;91.80
44305;DHT22;30019;50.576;8.568;2022-09-21T17:18:11;15.00;91.70
44305;DHT22;30019;50.576;8.568;2022-09-21T17:20:40;14.90;92.60
44305;DHT22;30019;50.576;8.568;2022-09-21T17:23:06;14.70;93.90
44305;DHT22;30019;50.576;8.568;2022-09-21T17:25:33;14.60;94.30
44305;DHT22;30019;50.576;8.568;2022-09-21T17:28:00;14.50;95.60
44305;DHT22;30019;50.576;8.568;2022-09-21T17:30:26;14.30;94.90
44305;DHT22;30019;50.576;8.568;2022-09-21T17:32:53;14.20;95.10
44305;DHT22;30019;50.576;8.568;2022-09-21T17:35:26;14.10;94.80
44305;DHT22;30019;50.576;8.568;2022-09-21T17:37:55;14.00;94.90
44305;DHT22;30019;50.576;8.568;2022-09-21T17:40:20;13.90;94.80
44305;DHT22;30019;50.576;8.568;2022-09-21T17:42:49;13.80;95.40
44305;DHT22;30019;50.576;8.568;2022-09-21T17:47:47;13.60;96.50
44305;DHT22;30019;50.576;8.568;2022-09-21T17:50:23;13.50;97.10
44305;DHT22;30019;50.576;8.568;2022-09-21T17:52:50;13.40;97.30
44305;DHT22;30019;50.576;8.568;2022-09-21T17:55:35;13.30;97.70
44305;DHT22;30019;50.576;8.568;2022-09-21T18:01:05;13.30;97.70
44305;DHT22;30019;50.576;8.568;2022-09-21T18:03:36;13.20;98.10
44305;DHT22;30019;50.576;8.568;2022-09-21T18:06:09;13.20;97.90
44305;DHT22;30019;50.576;8.568;2022-09-21T18:08:36;13.20;99.90
44305;DHT22;30019;50.576;8.568;2022-09-21T18:16:57;12.90;99.90
44305;DHT22;30019;50.576;8.568;2022-09-21T18:22:13;12.80;99.90
44305;DHT22;30019;50.576;8.568;2022-09-21T18:24:40;12.80;99.90
44305;DHT22;30019;50.576;8.568;2022-09-21T18:27:06;12.80;99.90
44305;DHT22;30019;50.576;8.568;2022-09-21T18:29:33;12.70;99.90
44305;DHT22;30019;50.576;8.568;2022-09-21T18:37:59;12.50;99.90
44305;DHT22;30019;50.576;8.568;2022-09-21T18:40:39;12.40;99.90
44305;DHT22;30019;50.576;8.568;2022-09-21T18:43:27;12.30;99.90
44305;DHT22;30019;50.576;8.568;2022-09-21T18:46:04;12.20;99.90
44305;DHT22;30019;50.576;8.568;2022-09-21T18:51:18;11.90;99.90
44305;DHT22;30019;50.576;8.568;2022-09-21T18:53:53;11.80;99.90
44305;DHT22;30019;50.576;8.568;2022-09-21T18:56:21;11.60;99.90
44305;DHT22;30019;50.576;8.568;2022-09-21T18:58:48;11.60;99.90
44305;DHT22;30019;50.576;8.568;2022-09-21T19:01:17;11.50;99.90
44305;DHT22;30019;50.576;8.568;2022-09-21T19:03:46;11.40;99.90
44305;DHT22;30019;50.576;8.568;2022-09-21T19:31:46;10.70;99.90
44305;DHT22;30019;50.576;8.568;2022-09-21T19:34:17;10.60;99.90
44305;DHT22;30019;50.576;8.568;2022-09-21T19:36:43;10.50;99.90
44305;DHT22;30019;50.576;8.568;2022-09-21T19:39:10;10.50;99.90
44305;DHT22;30019;50.576;8.568;2022-09-21T19:45:04;10.40;99.90
44305;DHT22;30019;50.576;8.568;2022-09-21T19:47:42;10.30;99.90
44305;DHT22;30019;50.576;8.568;2022-09-21T19:52:35;10.20;99.90
44305;DHT22;30019;50.576;8.568;2022-09-21T19:55:03;10.10;99.90
44305;DHT22;30019;50.576;8.568;2022-09-21T19:57:47;10.10;99.90
44305;DHT22;30019;50.576;8.568;2022-09-21T20:00:32;10.10;99.90
44305;DHT22;30019;50.576;8.568;2022-09-21T20:03:09;10.00;99.90
44305;DHT22;30019;50.576;8.568;2022-09-21T20:05:57;9.90;99.90
44305;DHT22;30019;50.576;8.568;2022-09-21T20:08:37;9.90;99.90
44305;DHT22;30019;50.576;8.568;2022-09-21T20:11:17;9.80;99.90